sensor_id;sensor_type;location;lat;lon;timestamp;temperature;humidity
12655;DHT22;6392;44.644;11.448;2022-08-01T00:02:28;25.00;99.90
12655;DHT22;6392;44.644;11.448;2022-08-01T00:04:58;25.00;99.90
12655;DHT22;6392;44.644;11.448;2022-08-01T00:07:27;25.00;99.90
12655;DHT22;6392;44.644;11.448;2022-08-01T00:09:55;25.00;99.90
12655;DHT22;6392;44.644;11.448;2022-08-01T00:12:23;24.90;99.90
12655;DHT22;6392;44.644;11.448;2022-08-01T00:14:51;24.90;99.90
12655;DHT22;6392;44.644;11.448;2022-08-01T00:17:18;24.90;99.90
12655;DHT22;6392;44.644;11.448;2022-08-01T00:19:47;24.80;99.90
12655;DHT22;6392;44.644;11.448;2022-08-01T00:22:17;24.80;99.90
12655;DHT22;6392;44.644;11.448;2022-08-01T00:24:46;24.80;99.90
12655;DHT22;6392;44.644;11.448;2022-08-01T00:27:16;24.70;99.90
12655;DHT22;6392;44.644;11.448;2022-08-01T00:29:44;24.60;99.90
12655;DHT22;6392;44.644;11.448;2022-08-01T00:32:14;24.50;99.90
12655;DHT22;6392;44.644;11.448;2022-08-01T00:34:43;24.40;99.90
12655;DHT22;6392;44.644;11.448;2022-08-01T00:37:10;24.40;99.90
12655;DHT22;6392;44.644;11.448;2022-08-01T00:39:40;24.40;99.90
12655;DHT22;6392;44.644;11.448;2022-08-01T00:42:09;24.30;99.90
12655;DHT22;6392;44.644;11.448;2022-08-01T00:44:39;24.30;99.90
12655;DHT22;6392;44.644;11.448;2022-08-01T00:47:07;24.40;99.90
12655;DHT22;6392;44.644;11.448;2022-08-01T00:49:39;24.50;99.90
12655;DHT22;6392;44.644;11.448;2022-08-01T00:52:06;24.50;99.90
12655;DHT22;6392;44.644;11.448;2022-08-01T00:54:35;24.50;99.90
12655;DHT22;6392;44.644;11.448;2022-08-01T00:57:04;24.40;99.90
12655;DHT22;6392;44.644;11.448;2022-08-01T00:59:31;24.40;99.90
12655;DHT22;6392;44.644;11.448;2022-08-01T01:01:59;24.40;99.90
12655;DHT22;6392;44.644;11.448;2022-08-01T01:04:26;24.30;99.90
12655;DHT22;6392;44.644;11.448;2022-08-01T01:06:59;24.10;99.90
12655;DHT22;6392;44.644;11.448;2022-08-01T01:09:41;24.00;99.90
12655;DHT22;6392;44.644;11.448;2022-08-01T01:12:19;23.80;99.90
12655;DHT22;6392;44.644;11.448;2022-08-01T01:14:54;23.80;99.90
12655;DHT22;6392;44.644;11.448;2022-08-01T01:17:28;23.80;99.90
12655;DHT22;6392;44.644;11.448;2022-08-01T01:20:00;23.80;99.90
12655;DHT22;6392;44.644;11.448;2022-08-01T01:22:47;23.80;99.90
12655;DHT22;6392;44.644;11.448;2022-08-01T01:25:40;23.90;99.90
12655;DHT22;6392;44.644;11.448;2022-08-01T01:28:12;23.90;99.90
12655;DHT22;6392;44.644;11.448;2022-08-01T01:30:47;23.90;99.90
12655;DHT22;6392;44.644;11.448;2022-08-01T01:33:17;23.90;99.90
12655;DHT22;6392;44.644;11.448;2022-08-01T01:35:49;24.00;99.90
12655;DHT22;6392;44.644;11.448;2022-08-01T01:38:21;24.10;99.90
12655;DHT22;6392;44.644;11.448;2022-08-01T01:40:50;24.10;99.90
12655;DHT22;6392;44.644;11.448;2022-08-01T01:43:20;24.00;99.90
12655;DHT22;6392;44.644;11.448;2022-08-01T01:45:50;24.00;99.90
12655;DHT22;6392;44.644;11.448;2022-08-01T01:48:20;23.90;99.90
12655;DHT22;6392;44.644;11.448;2022-08-01T01:50:48;23.80;99.90
12655;DHT22;6392;44.644;11.448;2022-08-01T01:53:20;23.70;99.90
12655;DHT22;6392;44.644;11.448;2022-08-01T01:55:52;23.80;99.90
12655;DHT22;6392;44.644;11.448;2022-08-01T01:58:20;23.80;99.90
12655;DHT22;6392;44.644;11.448;2022-08-01T02:00:52;23.80;99.90
12655;DHT22;6392;44.644;11.448;2022-08-01T02:03:21;23.70;99.90
12655;DHT22;6392;44.644;11.448;2022-08-01T02:05:56;23.70;99.90
12655;DHT22;6392;44.644;11.448;2022-08-01T02:08:24;23.50;99.90
12655;DHT22;6392;44.644;11.448;2022-08-01T02:10:53;23.50;99.90
12655;DHT22;6392;44.644;11.448;2022-08-01T02:13:41;23.50;99.90
12655;DHT22;6392;44.644;11.448;2022-08-01T02:16:11;23.50;99.90
12655;DHT22;6392;44.644;11.448;2022-08-01T02:18:39;23.50;99.90
12655;DHT22;6392;44.644;11.448;2022-08-01T02:21:20;23.40;99.90
12655;DHT22;6392;44.644;11.448;2022-08-01T02:23:57;23.30;99.90
12655;DHT22;6392;44.644;11.448;2022-08-01T02:26:41;23.20;99.90
12655;DHT22;6392;44.644;11.448;2022-08-01T02:29:11;23.20;99.90
12655;DHT22;6392;44.644;11.448;2022-08-01T02:31:51;23.20;99.90
12655;DHT22;6392;44.644;11.448;2022-08-01T02:34:21;23.20;99.90
12655;DHT22;6392;44.644;11.448;2022-08-01T02:36:49;23.10;99.90
12655;DHT22;6392;44.644;11.448;2022-08-01T02:39:19;23.10;99.90
12655;DHT22;6392;44.644;11.448;2022-08-01T02:41:50;23.10;99.90
12655;DHT22;6392;44.644;11.448;2022-08-01T02:44:24;23.10;99.90
12655;DHT22;6392;44.644;11.448;2022-08-01T02:46:58;23.20;99.90
12655;DHT22;6392;44.644;11.448;2022-08-01T02:49:31;23.10;99.90
12655;DHT22;6392;44.644;11.448;2022-08-01T02:52:01;23.10;99.90
12655;DHT22;6392;44.644;11.448;2022-08-01T02:54:31;23.20;99.90
12655;DHT22;6392;44.644;11.448;2022-08-01T02:57:01;23.30;99.90
12655;DHT22;6392;44.644;11.448;2022-08-01T02:59:30;23.40;99.90
12655;DHT22;6392;44.644;11.448;2022-08-01T03:02:00;23.50;99.90
12655;DHT22;6392;44.644;11.448;2022-08-01T03:04:33;23.50;99.90
12655;DHT22;6392;44.644;11.448;2022-08-01T03:07:03;23.60;99.90
12655;DHT22;6392;44.644;11.448;2022-08-01T03:09:37;23.60;99.90
12655;DHT22;6392;44.644;11.448;2022-08-01T03:12:11;23.60;99.90
12655;DHT22;6392;44.644;11.448;2022-08-01T03:14:41;23.60;99.90
12655;DHT22;6392;44.644;11.448;2022-08-01T03:17:11;23.60;99.90
12655;DHT22;6392;44.644;11.448;2022-08-01T03:19:39;23.50;99.90
12655;DHT22;6392;44.644;11.448;2022-08-01T03:22:09;23.40;99.90
12655;DHT22;6392;44.644;11.448;2022-08-01T03:24:42;23.20;99.90
12655;DHT22;6392;44.644;11.448;2022-08-01T03:27:10;23.20;99.90
12655;DHT22;6392;44.644;11.448;2022-08-01T03:29:40;23.40;99.90
12655;DHT22;6392;44.644;11.448;2022-08-01T03:32:11;23.30;99.90
12655;DHT22;6392;44.644;11.448;2022-08-01T03:34:40;23.30;99.90
12655;DHT22;6392;44.644;11.448;2022-08-01T03:37:17;23.30;99.90
12655;DHT22;6392;44.644;11.448;2022-08-01T03:39:52;23.30;99.90
12655;DHT22;6392;44.644;11.448;2022-08-01T03:42:23;23.20;99.90
12655;DHT22;6392;44.644;11.448;2022-08-01T03:44:56;23.10;99.90
12655;DHT22;6392;44.644;11.448;2022-08-01T03:47:30;23.10;99.90
12655;DHT22;6392;44.644;11.448;2022-08-01T03:49:59;23.20;99.90
12655;DHT22;6392;44.644;11.448;2022-08-01T03:52:30;23.30;99.90
12655;DHT22;6392;44.644;11.448;2022-08-01T03:55:04;23.30;99.90
12655;DHT22;6392;44.644;11.448;2022-08-01T03:57:42;23.30;99.90
12655;DHT22;6392;44.644;11.448;2022-08-01T04:00:12;23.40;99.90
12655;DHT22;6392;44.644;11.448;2022-08-01T04:02:41;23.30;99.90
12655;DHT22;6392;44.644;11.448;2022-08-01T04:05:14;23.30;99.90
12655;DHT22;6392;44.644;11.448;2022-08-01T04:07:46;23.30;99.90
12655;DHT22;6392;44.644;11.448;2022-08-01T04:10:14;23.30;99.90
12655;DHT22;6392;44.644;11.448;2022-08-01T04:12:42;23.30;99.90
12655;DHT22;6392;44.644;11.448;2022-08-01T04:15:10;23.40;99.90
12655;DHT22;6392;44.644;11.448;2022-08-01T04:17:37;23.30;99.90
12655;DHT22;6392;44.644;11.448;2022-08-01T04:20:07;23.30;99.90
12655;DHT22;6392;44.644;11.448;2022-08-01T04:22:35;23.40;99.90
12655;DHT22;6392;44.644;11.448;2022-08-01T04:25:05;23.30;99.90
12655;DHT22;6392;44.644;11.448;2022-08-01T04:27:37;23.30;99.90
12655;DHT22;6392;44.644;11.448;2022-08-01T04:30:06;23.30;99.90
12655;DHT22;6392;44.644;11.448;2022-08-01T04:32:38;23.20;99.90
12655;DHT22;6392;44.644;11.448;2022-08-01T04:35:09;23.00;99.90
12655;DHT22;6392;44.644;11.448;2022-08-01T04:37:38;22.90;99.90
12655;DHT22;6392;44.644;11.448;2022-08-01T04:40:08;22.90;99.90
12655;DHT22;6392;44.644;11.448;2022-08-01T04:42:36;22.80;99.90
12655;DHT22;6392;44.644;11.448;2022-08-01T04:45:04;22.70;99.90
12655;DHT22;6392;44.644;11.448;2022-08-01T04:47:34;22.60;99.90
12655;DHT22;6392;44.644;11.448;2022-08-01T04:50:04;22.50;99.90
12655;DHT22;6392;44.644;11.448;2022-08-01T04:52:35;22.50;99.90
12655;DHT22;6392;44.644;11.448;2022-08-01T04:55:04;22.50;99.90
12655;DHT22;6392;44.644;11.448;2022-08-01T04:57:34;22.50;99.90
12655;DHT22;6392;44.644;11.448;2022-08-01T05:00:04;22.50;99.90
12655;DHT22;6392;44.644;11.448;2022-08-01T05:02:32;22.50;99.90
12655;DHT22;6392;44.644;11.448;2022-08-01T05:05:00;22.60;99.90
12655;DHT22;6392;44.644;11.448;2022-08-01T05:07:27;22.60;99.90
12655;DHT22;6392;44.644;11.448;2022-08-01T05:09:56;22.70;99.90
12655;DHT22;6392;44.644;11.448;2022-08-01T05:12:23;22.80;99.90
12655;DHT22;6392;44.644;11.448;2022-08-01T05:14:51;22.90;99.90
12655;DHT22;6392;44.644;11.448;2022-08-01T05:17:18;23.00;99.90
12655;DHT22;6392;44.644;11.448;2022-08-01T05:19:56;23.00;99.90
12655;DHT22;6392;44.644;11.448;2022-08-01T05:22:23;23.00;99.90
12655;DHT22;6392;44.644;11.448;2022-08-01T05:24:51;23.10;99.90
12655;DHT22;6392;44.644;11.448;2022-08-01T05:27:22;23.10;99.90
12655;DHT22;6392;44.644;11.448;2022-08-01T05:29:49;23.20;99.90
12655;DHT22;6392;44.644;11.448;2022-08-01T05:32:16;23.20;99.90
12655;DHT22;6392;44.644;11.448;2022-08-01T05:34:43;23.30;99.90
12655;DHT22;6392;44.644;11.448;2022-08-01T05:37:11;23.40;99.90
12655;DHT22;6392;44.644;11.448;2022-08-01T05:39:38;23.50;99.90
12655;DHT22;6392;44.644;11.448;2022-08-01T05:42:05;23.60;99.90
12655;DHT22;6392;44.644;11.448;2022-08-01T05:44:36;23.70;99.90
12655;DHT22;6392;44.644;11.448;2022-08-01T05:47:03;23.80;99.90
12655;DHT22;6392;44.644;11.448;2022-08-01T05:49:30;23.90;99.90
12655;DHT22;6392;44.644;11.448;2022-08-01T05:51:58;23.90;99.90
12655;DHT22;6392;44.644;11.448;2022-08-01T05:54:27;24.00;99.90
12655;DHT22;6392;44.644;11.448;2022-08-01T05:56:54;24.00;99.90
12655;DHT22;6392;44.644;11.448;2022-08-01T05:59:30;24.20;99.90
12655;DHT22;6392;44.644;11.448;2022-08-01T06:01:59;24.30;99.90
12655;DHT22;6392;44.644;11.448;2022-08-01T06:04:26;24.30;99.90
12655;DHT22;6392;44.644;11.448;2022-08-01T06:06:54;24.40;99.90
12655;DHT22;6392;44.644;11.448;2022-08-01T06:09:21;24.50;99.90
12655;DHT22;6392;44.644;11.448;2022-08-01T06:11:48;24.50;99.90
12655;DHT22;6392;44.644;11.448;2022-08-01T06:14:15;24.60;99.90
12655;DHT22;6392;44.644;11.448;2022-08-01T06:16:42;24.70;99.90
12655;DHT22;6392;44.644;11.448;2022-08-01T06:19:11;24.80;99.90
12655;DHT22;6392;44.644;11.448;2022-08-01T06:21:42;24.90;99.90
12655;DHT22;6392;44.644;11.448;2022-08-01T06:24:10;24.90;99.90
12655;DHT22;6392;44.644;11.448;2022-08-01T06:26:37;25.00;99.90
12655;DHT22;6392;44.644;11.448;2022-08-01T06:29:04;25.10;99.90
12655;DHT22;6392;44.644;11.448;2022-08-01T06:31:34;25.20;99.90
12655;DHT22;6392;44.644;11.448;2022-08-01T06:34:02;25.30;99.90
12655;DHT22;6392;44.644;11.448;2022-08-01T06:36:31;25.40;99.90
12655;DHT22;6392;44.644;11.448;2022-08-01T06:38:58;25.50;99.90
12655;DHT22;6392;44.644;11.448;2022-08-01T06:41:27;25.50;99.90
12655;DHT22;6392;44.644;11.448;2022-08-01T06:43:54;25.60;99.90
12655;DHT22;6392;44.644;11.448;2022-08-01T06:46:27;25.60;99.90
12655;DHT22;6392;44.644;11.448;2022-08-01T06:48:54;25.70;99.90
12655;DHT22;6392;44.644;11.448;2022-08-01T06:51:21;25.70;99.90
12655;DHT22;6392;44.644;11.448;2022-08-01T06:53:50;25.70;99.90
12655;DHT22;6392;44.644;11.448;2022-08-01T06:56:20;25.80;99.90
12655;DHT22;6392;44.644;11.448;2022-08-01T06:58:49;25.90;99.90
12655;DHT22;6392;44.644;11.448;2022-08-01T07:01:18;25.90;99.90
12655;DHT22;6392;44.644;11.448;2022-08-01T07:03:45;25.90;99.90
12655;DHT22;6392;44.644;11.448;2022-08-01T07:06:12;26.00;99.90
12655;DHT22;6392;44.644;11.448;2022-08-01T07:08:40;26.00;99.90
12655;DHT22;6392;44.644;11.448;2022-08-01T07:11:09;26.10;99.90
12655;DHT22;6392;44.644;11.448;2022-08-01T07:13:36;26.10;99.90
12655;DHT22;6392;44.644;11.448;2022-08-01T07:16:03;26.20;99.90
12655;DHT22;6392;44.644;11.448;2022-08-01T07:18:30;26.20;99.90
12655;DHT22;6392;44.644;11.448;2022-08-01T07:20:58;26.30;99.90
12655;DHT22;6392;44.644;11.448;2022-08-01T07:23:30;26.40;99.90
12655;DHT22;6392;44.644;11.448;2022-08-01T07:25:57;26.50;99.90
12655;DHT22;6392;44.644;11.448;2022-08-01T07:28:29;26.50;99.90
12655;DHT22;6392;44.644;11.448;2022-08-01T07:31:05;26.60;99.90
12655;DHT22;6392;44.644;11.448;2022-08-01T07:33:32;26.70;99.90
12655;DHT22;6392;44.644;11.448;2022-08-01T07:35:59;26.70;99.90
12655;DHT22;6392;44.644;11.448;2022-08-01T07:38:26;26.70;99.90
12655;DHT22;6392;44.644;11.448;2022-08-01T07:40:55;26.70;99.90
12655;DHT22;6392;44.644;11.448;2022-08-01T07:43:22;26.90;99.90
12655;DHT22;6392;44.644;11.448;2022-08-01T07:45:57;26.90;99.90
12655;DHT22;6392;44.644;11.448;2022-08-01T07:48:25;27.00;99.90
12655;DHT22;6392;44.644;11.448;2022-08-01T07:50:52;27.00;99.90
12655;DHT22;6392;44.644;11.448;2022-08-01T07:53:19;27.10;99.90
12655;DHT22;6392;44.644;11.448;2022-08-01T07:55:48;27.10;99.90
12655;DHT22;6392;44.644;11.448;2022-08-01T07:58:15;27.30;99.90
12655;DHT22;6392;44.644;11.448;2022-08-01T08:00:43;27.30;99.90
12655;DHT22;6392;44.644;11.448;2022-08-01T08:03:12;27.30;99.90
12655;DHT22;6392;44.644;11.448;2022-08-01T08:05:39;27.30;99.90
12655;DHT22;6392;44.644;11.448;2022-08-01T08:08:07;27.40;99.90
12655;DHT22;6392;44.644;11.448;2022-08-01T08:10:36;27.40;99.90
12655;DHT22;6392;44.644;11.448;2022-08-01T08:13:03;27.50;99.90
12655;DHT22;6392;44.644;11.448;2022-08-01T08:15:30;27.50;99.90
12655;DHT22;6392;44.644;11.448;2022-08-01T08:17:57;27.60;99.90
12655;DHT22;6392;44.644;11.448;2022-08-01T08:20:25;27.60;99.90
12655;DHT22;6392;44.644;11.448;2022-08-01T08:22:55;27.60;99.90
12655;DHT22;6392;44.644;11.448;2022-08-01T08:25:27;27.60;99.90
12655;DHT22;6392;44.644;11.448;2022-08-01T08:27:57;27.60;99.90
12655;DHT22;6392;44.644;11.448;2022-08-01T08:30:26;27.70;99.90
12655;DHT22;6392;44.644;11.448;2022-08-01T08:32:53;27.90;99.90
12655;DHT22;6392;44.644;11.448;2022-08-01T08:35:26;28.00;99.90
12655;DHT22;6392;44.644;11.448;2022-08-01T08:37:53;28.00;99.90
12655;DHT22;6392;44.644;11.448;2022-08-01T08:40:22;28.00;99.90
12655;DHT22;6392;44.644;11.448;2022-08-01T08:43:00;28.00;99.90
12655;DHT22;6392;44.644;11.448;2022-08-01T08:45:29;28.00;99.90
12655;DHT22;6392;44.644;11.448;2022-08-01T08:47:58;28.00;99.90
12655;DHT22;6392;44.644;11.448;2022-08-01T08:50:28;28.00;99.90
12655;DHT22;6392;44.644;11.448;2022-08-01T08:52:58;28.00;99.90
12655;DHT22;6392;44.644;11.448;2022-08-01T08:55:28;28.00;99.90
12655;DHT22;6392;44.644;11.448;2022-08-01T08:57:58;28.10;99.90
12655;DHT22;6392;44.644;11.448;2022-08-01T09:00:28;28.10;99.90
12655;DHT22;6392;44.644;11.448;2022-08-01T09:02:55;28.10;99.90
12655;DHT22;6392;44.644;11.448;2022-08-01T09:05:23;28.20;99.90
12655;DHT22;6392;44.644;11.448;2022-08-01T09:07:54;28.30;99.90
12655;DHT22;6392;44.644;11.448;2022-08-01T09:10:23;28.40;99.90
12655;DHT22;6392;44.644;11.448;2022-08-01T09:13:05;28.30;99.90
12655;DHT22;6392;44.644;11.448;2022-08-01T09:15:41;28.40;99.90
12655;DHT22;6392;44.644;11.448;2022-08-01T09:18:26;28.50;99.90
12655;DHT22;6392;44.644;11.448;2022-08-01T09:21:11;28.50;99.90
12655;DHT22;6392;44.644;11.448;2022-08-01T09:23:43;28.40;99.90
12655;DHT22;6392;44.644;11.448;2022-08-01T09:26:12;28.30;99.90
12655;DHT22;6392;44.644;11.448;2022-08-01T09:28:40;28.20;99.90
12655;DHT22;6392;44.644;11.448;2022-08-01T09:31:12;28.20;99.90
12655;DHT22;6392;44.644;11.448;2022-08-01T09:33:51;28.30;99.90
12655;DHT22;6392;44.644;11.448;2022-08-01T09:36:20;28.40;99.90
12655;DHT22;6392;44.644;11.448;2022-08-01T09:38:49;28.30;99.90
12655;DHT22;6392;44.644;11.448;2022-08-01T09:41:16;28.10;99.90
12655;DHT22;6392;44.644;11.448;2022-08-01T09:43:49;28.00;99.90
12655;DHT22;6392;44.644;11.448;2022-08-01T09:46:23;28.20;99.90
12655;DHT22;6392;44.644;11.448;2022-08-01T09:49:01;28.20;99.90
12655;DHT22;6392;44.644;11.448;2022-08-01T09:51:30;28.20;99.90
12655;DHT22;6392;44.644;11.448;2022-08-01T09:53:59;28.30;99.90
12655;DHT22;6392;44.644;11.448;2022-08-01T09:56:26;28.30;99.90
12655;DHT22;6392;44.644;11.448;2022-08-01T09:59:03;28.50;99.90
12655;DHT22;6392;44.644;11.448;2022-08-01T10:01:45;28.60;99.90
12655;DHT22;6392;44.644;11.448;2022-08-01T10:04:15;28.90;99.90
12655;DHT22;6392;44.644;11.448;2022-08-01T10:06:48;29.00;99.90
12655;DHT22;6392;44.644;11.448;2022-08-01T10:09:30;28.90;99.90
12655;DHT22;6392;44.644;11.448;2022-08-01T10:12:00;28.70;99.90
12655;DHT22;6392;44.644;11.448;2022-08-01T10:14:29;28.40;99.90
12655;DHT22;6392;44.644;11.448;2022-08-01T10:16:58;28.30;99.90
12655;DHT22;6392;44.644;11.448;2022-08-01T10:19:29;28.30;99.90
12655;DHT22;6392;44.644;11.448;2022-08-01T10:22:00;28.50;99.90
12655;DHT22;6392;44.644;11.448;2022-08-01T10:24:30;28.90;99.90
12655;DHT22;6392;44.644;11.448;2022-08-01T10:27:02;29.00;99.90
12655;DHT22;6392;44.644;11.448;2022-08-01T10:29:36;28.90;99.90
12655;DHT22;6392;44.644;11.448;2022-08-01T10:32:04;28.80;99.90
12655;DHT22;6392;44.644;11.448;2022-08-01T10:34:35;28.90;99.90
12655;DHT22;6392;44.644;11.448;2022-08-01T10:37:03;28.90;99.90
12655;DHT22;6392;44.644;11.448;2022-08-01T10:39:33;28.80;99.90
12655;DHT22;6392;44.644;11.448;2022-08-01T10:42:01;28.60;99.90
12655;DHT22;6392;44.644;11.448;2022-08-01T10:44:30;28.50;99.90
12655;DHT22;6392;44.644;11.448;2022-08-01T10:47:02;28.30;99.90
12655;DHT22;6392;44.644;11.448;2022-08-01T10:49:33;28.20;99.90
12655;DHT22;6392;44.644;11.448;2022-08-01T10:52:02;28.20;99.90
12655;DHT22;6392;44.644;11.448;2022-08-01T10:54:40;28.10;99.90
12655;DHT22;6392;44.644;11.448;2022-08-01T10:57:08;28.30;99.90
12655;DHT22;6392;44.644;11.448;2022-08-01T10:59:48;28.60;99.90
12655;DHT22;6392;44.644;11.448;2022-08-01T11:02:28;28.80;99.90
12655;DHT22;6392;44.644;11.448;2022-08-01T11:05:01;28.90;99.90
12655;DHT22;6392;44.644;11.448;2022-08-01T11:07:42;29.00;99.90
12655;DHT22;6392;44.644;11.448;2022-08-01T11:10:21;28.70;99.90
12655;DHT22;6392;44.644;11.448;2022-08-01T11:12:50;28.70;99.90
12655;DHT22;6392;44.644;11.448;2022-08-01T11:15:24;28.80;99.90
12655;DHT22;6392;44.644;11.448;2022-08-01T11:17:53;28.90;99.90
12655;DHT22;6392;44.644;11.448;2022-08-01T11:20:21;28.70;99.90
12655;DHT22;6392;44.644;11.448;2022-08-01T11:23:23;28.60;99.90
12655;DHT22;6392;44.644;11.448;2022-08-01T11:26:14;28.70;99.90
12655;DHT22;6392;44.644;11.448;2022-08-01T11:31:35;28.30;99.90
12655;DHT22;6392;44.644;11.448;2022-08-01T11:34:03;28.20;99.90
12655;DHT22;6392;44.644;11.448;2022-08-01T11:36:31;28.30;99.90
12655;DHT22;6392;44.644;11.448;2022-08-01T11:39:17;28.70;99.90
12655;DHT22;6392;44.644;11.448;2022-08-01T11:41:47;28.90;99.90
12655;DHT22;6392;44.644;11.448;2022-08-01T11:44:19;29.20;99.20
12655;DHT22;6392;44.644;11.448;2022-08-01T11:46:54;29.70;99.90
12655;DHT22;6392;44.644;11.448;2022-08-01T11:49:26;29.50;99.90
12655;DHT22;6392;44.644;11.448;2022-08-01T11:52:01;29.00;99.90
12655;DHT22;6392;44.644;11.448;2022-08-01T11:54:33;29.60;99.90
12655;DHT22;6392;44.644;11.448;2022-08-01T11:57:08;30.00;99.90
12655;DHT22;6392;44.644;11.448;2022-08-01T11:59:38;30.50;99.90
12655;DHT22;6392;44.644;11.448;2022-08-01T12:02:16;30.80;97.70
12655;DHT22;6392;44.644;11.448;2022-08-01T12:04:48;31.10;99.40
12655;DHT22;6392;44.644;11.448;2022-08-01T12:07:16;30.60;99.90
12655;DHT22;6392;44.644;11.448;2022-08-01T12:09:44;30.00;99.90
12655;DHT22;6392;44.644;11.448;2022-08-01T12:12:17;29.50;99.90
12655;DHT22;6392;44.644;11.448;2022-08-01T12:14:45;29.40;99.90
12655;DHT22;6392;44.644;11.448;2022-08-01T12:17:21;29.70;99.90
12655;DHT22;6392;44.644;11.448;2022-08-01T12:19:54;29.80;99.90
12655;DHT22;6392;44.644;11.448;2022-08-01T12:22:22;29.40;99.90
12655;DHT22;6392;44.644;11.448;2022-08-01T12:24:51;29.10;99.90
12655;DHT22;6392;44.644;11.448;2022-08-01T12:27:27;28.80;99.90
12655;DHT22;6392;44.644;11.448;2022-08-01T12:29:58;28.70;99.90
12655;DHT22;6392;44.644;11.448;2022-08-01T12:32:28;28.50;99.90
12655;DHT22;6392;44.644;11.448;2022-08-01T12:35:00;28.50;99.90
12655;DHT22;6392;44.644;11.448;2022-08-01T12:47:36;30.50;99.90
12655;DHT22;6392;44.644;11.448;2022-08-01T12:50:06;30.20;99.90
12655;DHT22;6392;44.644;11.448;2022-08-01T12:52:35;29.80;99.90
12655;DHT22;6392;44.644;11.448;2022-08-01T12:55:13;29.80;99.90
12655;DHT22;6392;44.644;11.448;2022-08-01T12:57:42;30.00;99.90
12655;DHT22;6392;44.644;11.448;2022-08-01T13:00:23;29.90;99.90
12655;DHT22;6392;44.644;11.448;2022-08-01T13:03:03;30.50;99.90
12655;DHT22;6392;44.644;11.448;2022-08-01T13:05:42;31.50;94.80
12655;DHT22;6392;44.644;11.448;2022-08-01T13:08:10;32.60;93.20
12655;DHT22;6392;44.644;11.448;2022-08-01T13:10:40;32.50;99.40
12655;DHT22;6392;44.644;11.448;2022-08-01T13:13:10;31.20;99.90
12655;DHT22;6392;44.644;11.448;2022-08-01T13:15:39;30.30;99.90
12655;DHT22;6392;44.644;11.448;2022-08-01T13:18:27;29.50;99.90
12655;DHT22;6392;44.644;11.448;2022-08-01T13:21:10;29.10;99.90
12655;DHT22;6392;44.644;11.448;2022-08-01T13:24:00;28.90;99.90
12655;DHT22;6392;44.644;11.448;2022-08-01T13:26:42;29.00;99.90
12655;DHT22;6392;44.644;11.448;2022-08-01T13:29:12;28.90;99.90
12655;DHT22;6392;44.644;11.448;2022-08-01T13:31:41;28.80;99.90
12655;DHT22;6392;44.644;11.448;2022-08-01T13:34:11;28.90;99.90
12655;DHT22;6392;44.644;11.448;2022-08-01T13:36:41;28.80;99.90
12655;DHT22;6392;44.644;11.448;2022-08-01T13:39:11;28.70;99.90
12655;DHT22;6392;44.644;11.448;2022-08-01T13:41:56;28.80;99.90
12655;DHT22;6392;44.644;11.448;2022-08-01T13:44:26;28.70;99.90
12655;DHT22;6392;44.644;11.448;2022-08-01T13:46:53;28.70;99.90
12655;DHT22;6392;44.644;11.448;2022-08-01T13:49:23;28.80;99.90
12655;DHT22;6392;44.644;11.448;2022-08-01T13:51:51;29.10;99.90
12655;DHT22;6392;44.644;11.448;2022-08-01T13:54:18;29.50;99.90
12655;DHT22;6392;44.644;11.448;2022-08-01T13:56:46;29.30;99.90
12655;DHT22;6392;44.644;11.448;2022-08-01T13:59:13;29.20;99.90
12655;DHT22;6392;44.644;11.448;2022-08-01T14:01:40;29.10;99.90
12655;DHT22;6392;44.644;11.448;2022-08-01T14:04:08;29.00;99.90
12655;DHT22;6392;44.644;11.448;2022-08-01T14:06:37;29.00;99.90
12655;DHT22;6392;44.644;11.448;2022-08-01T14:09:04;29.00;99.90
12655;DHT22;6392;44.644;11.448;2022-08-01T14:11:32;29.80;99.90
12655;DHT22;6392;44.644;11.448;2022-08-01T14:14:00;30.40;99.90
12655;DHT22;6392;44.644;11.448;2022-08-01T14:16:27;30.20;99.90
12655;DHT22;6392;44.644;11.448;2022-08-01T14:18:55;29.70;99.90
12655;DHT22;6392;44.644;11.448;2022-08-01T14:21:22;29.50;99.90
12655;DHT22;6392;44.644;11.448;2022-08-01T14:23:51;29.40;99.90
12655;DHT22;6392;44.644;11.448;2022-08-01T14:26:19;29.30;99.90
12655;DHT22;6392;44.644;11.448;2022-08-01T14:28:47;29.30;99.90
12655;DHT22;6392;44.644;11.448;2022-08-01T14:31:15;29.10;99.90
12655;DHT22;6392;44.644;11.448;2022-08-01T14:33:42;29.20;99.90
12655;DHT22;6392;44.644;11.448;2022-08-01T14:36:10;29.30;99.90
12655;DHT22;6392;44.644;11.448;2022-08-01T14:38:38;29.40;99.90
12655;DHT22;6392;44.644;11.448;2022-08-01T14:41:08;29.60;99.90
12655;DHT22;6392;44.644;11.448;2022-08-01T14:43:35;29.50;99.90
12655;DHT22;6392;44.644;11.448;2022-08-01T14:46:02;29.70;99.90
12655;DHT22;6392;44.644;11.448;2022-08-01T14:48:30;29.70;99.90
12655;DHT22;6392;44.644;11.448;2022-08-01T14:50:57;29.60;99.90
12655;DHT22;6392;44.644;11.448;2022-08-01T14:53:25;29.70;99.90
12655;DHT22;6392;44.644;11.448;2022-08-01T14:55:52;30.00;99.90
12655;DHT22;6392;44.644;11.448;2022-08-01T14:58:21;29.90;99.90
12655;DHT22;6392;44.644;11.448;2022-08-01T15:00:48;29.80;99.90
12655;DHT22;6392;44.644;11.448;2022-08-01T15:03:15;29.90;99.90
12655;DHT22;6392;44.644;11.448;2022-08-01T15:05:42;29.90;99.90
12655;DHT22;6392;44.644;11.448;2022-08-01T15:08:10;30.10;99.90
12655;DHT22;6392;44.644;11.448;2022-08-01T15:10:37;30.10;99.90
12655;DHT22;6392;44.644;11.448;2022-08-01T15:13:05;30.00;99.90
12655;DHT22;6392;44.644;11.448;2022-08-01T15:15:34;29.80;99.90
12655;DHT22;6392;44.644;11.448;2022-08-01T15:18:02;29.90;99.90
12655;DHT22;6392;44.644;11.448;2022-08-01T15:20:29;30.20;99.90
12655;DHT22;6392;44.644;11.448;2022-08-01T15:22:56;30.50;99.90
12655;DHT22;6392;44.644;11.448;2022-08-01T15:25:26;30.80;99.90
12655;DHT22;6392;44.644;11.448;2022-08-01T15:27:56;30.50;99.90
12655;DHT22;6392;44.644;11.448;2022-08-01T15:30:24;30.40;99.90
12655;DHT22;6392;44.644;11.448;2022-08-01T15:32:53;30.30;99.90
12655;DHT22;6392;44.644;11.448;2022-08-01T15:35:20;30.30;99.90
12655;DHT22;6392;44.644;11.448;2022-08-01T15:37:47;30.30;99.90
12655;DHT22;6392;44.644;11.448;2022-08-01T15:40:16;30.20;99.90
12655;DHT22;6392;44.644;11.448;2022-08-01T15:42:44;30.80;99.90
12655;DHT22;6392;44.644;11.448;2022-08-01T15:45:11;31.60;99.40
12655;DHT22;6392;44.644;11.448;2022-08-01T15:47:43;32.00;99.40
12655;DHT22;6392;44.644;11.448;2022-08-01T15:50:12;32.20;99.00
12655;DHT22;6392;44.644;11.448;2022-08-01T15:52:39;32.90;95.90
12655;DHT22;6392;44.644;11.448;2022-08-01T15:55:07;33.40;97.10
12655;DHT22;6392;44.644;11.448;2022-08-01T15:57:34;33.30;97.50
12655;DHT22;6392;44.644;11.448;2022-08-01T16:00:03;33.20;97.40
12655;DHT22;6392;44.644;11.448;2022-08-01T16:02:30;33.20;97.50
12655;DHT22;6392;44.644;11.448;2022-08-01T16:04:57;32.60;98.40